createdAt,value
2019-03-16T00:00:47.146Z,98309.88
2019-03-16T00:02:54.341Z,98307.75
2019-03-16T00:05:01.721Z,98336.02
2019-03-16T00:07:09.001Z,98315.32
2019-03-16T00:09:16.271Z,98295.33
2019-03-16T00:11:23.617Z,98316.80
2019-03-16T00:13:30.951Z,98297.65
2019-03-16T00:15:38.220Z,98296.64
2019-03-16T00:17:45.654Z,98295.98
2019-03-16T00:19:52.871Z,98285.09
2019-03-16T00:22:00.309Z,98288.63
2019-03-16T00:24:07.701Z,98283.22
2019-03-16T00:26:15.062Z,98288.39
2019-03-16T00:28:22.446Z,98298.39
2019-03-16T00:30:29.798Z,98303.91
2019-03-16T00:32:37.135Z,98297.47
2019-03-16T00:34:44.480Z,98293.57
2019-03-16T00:36:51.889Z,98288.62
2019-03-16T00:38:59.260Z,98288.17
2019-03-16T00:41:06.633Z,98299.71
2019-03-16T00:43:14.103Z,98300.48
2019-03-16T00:45:21.540Z,98297.12
2019-03-16T00:47:28.894Z,98306.08
2019-03-16T00:49:36.198Z,98306.27
2019-03-16T00:51:43.543Z,98302.73
2019-03-16T00:53:50.861Z,98293.40
2019-03-16T00:55:58.175Z,98286.50
2019-03-16T00:58:05.748Z,98285.94
2019-03-16T01:00:13.870Z,98283.53
2019-03-16T01:02:26.953Z,98275.91
2019-03-16T01:04:30.426Z,98283.16
2019-03-16T01:06:37.814Z,98277.94
2019-03-16T01:08:45.148Z,98273.75
2019-03-16T01:10:52.498Z,98272.34
2019-03-16T01:12:59.915Z,98269.02
2019-03-16T01:15:09.108Z,98272.94
2019-03-16T01:17:16.419Z,98267.42
2019-03-16T01:19:23.845Z,98276.17
2019-03-16T01:21:31.232Z,98263.23
2019-03-16T01:23:38.552Z,98266.88
2019-03-16T01:25:45.920Z,98266.38
2019-03-16T01:27:53.242Z,98272.14
2019-03-16T01:30:00.609Z,98271.58
2019-03-16T01:32:08.019Z,98264.70
2019-03-16T01:34:15.370Z,98261.44
2019-03-16T01:36:22.742Z,98255.83
2019-03-16T01:38:30.035Z,98263.37
2019-03-16T01:40:37.311Z,98267.39
2019-03-16T01:42:44.757Z,98269.05
2019-03-16T01:44:52.136Z,98269.25
2019-03-16T01:46:59.874Z,98270.56
2019-03-16T01:49:07.152Z,98267.74
2019-03-16T01:51:14.457Z,98274.45
2019-03-16T01:53:21.767Z,98264.30
2019-03-16T01:55:29.129Z,98259.39
2019-03-16T01:57:36.431Z,98265.59
2019-03-16T01:59:43.752Z,98268.27
2019-03-16T02:01:51.023Z,98279.69
2019-03-16T02:03:58.540Z,98265.98
2019-03-16T02:06:05.844Z,98266.53
2019-03-16T02:08:13.350Z,98253.80
2019-03-16T02:10:20.544Z,98271.34
2019-03-16T02:12:27.859Z,98271.81
2019-03-16T02:14:35.061Z,98252.79
2019-03-16T02:16:42.394Z,98256.00
2019-03-16T02:18:50.865Z,98257.83
2019-03-16T02:20:58.132Z,98252.39
2019-03-16T02:23:05.469Z,98257.80
2019-03-16T02:25:13.135Z,98260.36
2019-03-16T02:27:20.411Z,98248.03
2019-03-16T02:29:27.611Z,98258.44
2019-03-16T02:31:34.943Z,98250.13
2019-03-16T02:33:42.306Z,98231.95
2019-03-16T02:35:49.644Z,98230.48
2019-03-16T02:37:56.925Z,98235.03
2019-03-16T02:40:04.369Z,98246.96
2019-03-16T02:42:11.699Z,98248.36
2019-03-16T02:44:18.956Z,98251.07
2019-03-16T02:46:26.351Z,98267.80
2019-03-16T02:48:33.676Z,98267.93
2019-03-16T02:50:41.003Z,98251.50
2019-03-16T02:52:49.975Z,98255.61
2019-03-16T02:54:57.168Z,98250.21
2019-03-16T02:57:04.513Z,98251.33
2019-03-16T02:59:11.873Z,98254.86
2019-03-16T03:01:19.172Z,98250.50
2019-03-16T03:03:29.594Z,98247.37
2019-03-16T03:05:35.384Z,98258.73
2019-03-16T03:07:42.585Z,98248.05
2019-03-16T03:09:50.316Z,98250.83
2019-03-16T03:11:57.832Z,98232.74
2019-03-16T03:14:05.196Z,98250.73
2019-03-16T03:16:12.714Z,98249.58
2019-03-16T03:18:19.994Z,98242.63
2019-03-16T03:20:27.295Z,98250.69
2019-03-16T03:22:34.609Z,98252.47
2019-03-16T03:24:44.256Z,98258.05
2019-03-16T03:26:50.970Z,98264.72
2019-03-16T03:28:58.199Z,98267.38
2019-03-16T03:31:05.527Z,98271.73
2019-03-16T03:33:12.829Z,98255.33
2019-03-16T03:35:20.145Z,98260.94
2019-03-16T03:37:27.500Z,98283.64
2019-03-16T03:39:34.737Z,98268.71
2019-03-16T03:41:42.084Z,98271.02
2019-03-16T03:43:49.486Z,98251.31
2019-03-16T03:45:56.818Z,98271.97
2019-03-16T03:48:04.110Z,98275.51
2019-03-16T03:50:11.675Z,98242.41
2019-03-16T03:52:21.782Z,98272.09
2019-03-16T03:54:29.181Z,98265.29
2019-03-16T03:56:36.494Z,98279.98
2019-03-16T03:58:43.844Z,98282.52
2019-03-16T04:00:51.247Z,98288.06
2019-03-16T04:02:58.843Z,98277.68
2019-03-16T04:05:06.418Z,98286.19
2019-03-16T04:07:13.792Z,98287.32
2019-03-16T04:09:21.282Z,98286.75
2019-03-16T04:11:28.654Z,98275.20
2019-03-16T04:13:35.956Z,98283.45
2019-03-16T04:15:43.212Z,98299.97
2019-03-16T04:17:50.467Z,98299.09
2019-03-16T04:19:57.770Z,98315.73
2019-03-16T04:22:05.100Z,98307.89
2019-03-16T04:24:12.401Z,98311.52
2019-03-16T04:26:19.787Z,98302.45
2019-03-16T04:28:27.132Z,98309.89
2019-03-16T04:30:34.426Z,98304.09
2019-03-16T04:32:41.697Z,98315.30
2019-03-16T04:34:48.921Z,98323.32
2019-03-16T04:36:56.246Z,98322.39
2019-03-16T04:39:03.577Z,98329.86
2019-03-16T04:41:10.866Z,98344.45
2019-03-16T04:43:18.058Z,98337.83
2019-03-16T04:45:25.424Z,98350.99
2019-03-16T04:47:32.628Z,98355.88
2019-03-16T04:49:39.986Z,98368.33
2019-03-16T04:51:47.336Z,98374.42
2019-03-16T04:53:54.617Z,98382.27
2019-03-16T04:56:01.938Z,98375.10
2019-03-16T04:58:09.273Z,98389.67
2019-03-16T05:00:16.648Z,98397.36
2019-03-16T05:02:23.855Z,98393.26
2019-03-16T05:04:42.005Z,98412.73
2019-03-16T05:06:40.172Z,98414.50
2019-03-16T05:08:47.425Z,98429.17
2019-03-16T05:10:54.737Z,98429.34
2019-03-16T05:13:02.192Z,98449.50
2019-03-16T05:15:09.783Z,98447.28
2019-03-16T05:17:17.087Z,98451.76
2019-03-16T05:19:24.465Z,98448.03
2019-03-16T05:21:31.786Z,98470.41
2019-03-16T05:23:39.344Z,98464.25
2019-03-16T05:25:46.687Z,98472.64
2019-03-16T05:27:54.091Z,98474.42
2019-03-16T05:30:01.433Z,98479.94
2019-03-16T05:32:08.690Z,98482.36
2019-03-16T05:34:16.104Z,98488.03
2019-03-16T05:36:23.356Z,98497.09
2019-03-16T05:38:30.681Z,98483.83
2019-03-16T05:40:37.992Z,98494.28
2019-03-16T05:42:45.572Z,98493.36
2019-03-16T05:44:53.008Z,98506.70
2019-03-16T05:47:00.532Z,98508.84
2019-03-16T05:49:08.075Z,98509.67
2019-03-16T05:51:15.390Z,98516.48
2019-03-16T05:53:22.794Z,98530.64
2019-03-16T05:55:30.400Z,98549.31
2019-03-16T05:57:37.813Z,98539.43
2019-03-16T05:59:45.169Z,98564.80
2019-03-16T06:01:52.547Z,98564.44
2019-03-16T06:03:59.944Z,98584.58
2019-03-16T06:06:07.466Z,98581.06
2019-03-16T06:08:14.914Z,98597.92
2019-03-16T06:10:22.318Z,98595.58
2019-03-16T06:12:29.782Z,98600.05
2019-03-16T06:14:37.317Z,98634.19
2019-03-16T06:16:44.661Z,98612.27
2019-03-16T06:18:52.228Z,98620.73
2019-03-16T06:20:59.789Z,98635.11
2019-03-16T06:23:07.126Z,98619.55
2019-03-16T06:25:14.772Z,98625.32
2019-03-16T06:27:22.297Z,98638.47
2019-03-16T06:29:29.726Z,98639.07
2019-03-16T06:31:37.115Z,98649.88
2019-03-16T06:33:44.551Z,98644.39
2019-03-16T06:35:52.043Z,98657.56
2019-03-16T06:37:59.629Z,98653.92
2019-03-16T06:40:07.490Z,98657.30
2019-03-16T06:42:14.841Z,98655.33
2019-03-16T06:44:22.288Z,98653.00
2019-03-16T06:46:29.702Z,98663.09
2019-03-16T06:48:37.118Z,98670.30
2019-03-16T06:50:44.586Z,98688.86
2019-03-16T06:52:52.186Z,98669.73
2019-03-16T06:54:59.588Z,98679.25
2019-03-16T06:57:07.258Z,98683.16
2019-03-16T06:59:14.814Z,98680.08
2019-03-16T07:01:43.841Z,98692.94
2019-03-16T07:03:51.488Z,98700.89
2019-03-16T07:05:58.940Z,98700.61
2019-03-16T07:08:06.346Z,98719.33
2019-03-16T07:10:13.883Z,98731.27
2019-03-16T07:12:21.241Z,98749.71
2019-03-16T07:14:29.921Z,98739.09
2019-03-16T07:16:38.086Z,98742.58
2019-03-16T07:18:58.069Z,98753.94
2019-03-16T07:20:55.385Z,98746.97
2019-03-16T07:23:03.160Z,98745.84
2019-03-16T07:25:10.912Z,98767.89
2019-03-16T07:27:25.991Z,98766.33
2019-03-16T07:29:28.237Z,98769.70
2019-03-16T07:31:35.896Z,98767.16
2019-03-16T07:33:43.610Z,98774.92
2019-03-16T07:35:51.293Z,98786.20
2019-03-16T07:37:58.875Z,98795.48
2019-03-16T07:40:07.576Z,98804.63
2019-03-16T07:42:14.942Z,98812.94
2019-03-16T07:44:22.405Z,98826.98
2019-03-16T07:46:30.192Z,98823.07
2019-03-16T07:48:37.807Z,98824.38
2019-03-16T07:50:45.644Z,98834.68
2019-03-16T07:52:53.197Z,98827.60
2019-03-16T07:55:00.836Z,98839.64
2019-03-16T07:57:08.342Z,98839.17
2019-03-16T07:59:17.374Z,98846.28
2019-03-16T08:01:24.988Z,98852.67
2019-03-16T08:03:38.817Z,98866.97
2019-03-16T08:05:51.030Z,98873.80
2019-03-16T08:07:58.700Z,98865.48
2019-03-16T08:10:06.360Z,98862.39
2019-03-16T08:12:13.838Z,98879.78
2019-03-16T08:14:22.352Z,98889.03
2019-03-16T08:16:30.149Z,98889.14
2019-03-16T08:18:38.151Z,98902.28
2019-03-16T08:20:45.888Z,98910.20
2019-03-16T08:22:55.604Z,98905.05
2019-03-16T08:25:07.914Z,98909.36
2019-03-16T08:27:16.080Z,98910.37
2019-03-16T08:29:23.949Z,98908.38
2019-03-16T08:31:31.785Z,98916.73
2019-03-16T08:33:39.662Z,98924.46
2019-03-16T08:35:47.459Z,98925.12
2019-03-16T08:37:55.195Z,98937.94
2019-03-16T08:40:03.486Z,98952.63
2019-03-16T08:42:12.442Z,98955.69
2019-03-16T08:44:20.423Z,98962.40
2019-03-16T08:46:28.265Z,98952.95
2019-03-16T08:48:35.927Z,98962.22
2019-03-16T08:50:43.532Z,98977.14
2019-03-16T08:52:53.633Z,98976.48
2019-03-16T08:55:01.594Z,98981.70
2019-03-16T08:57:08.985Z,98993.77
2019-03-16T08:59:17.453Z,99000.00
2019-03-16T09:01:27.188Z,99004.83
2019-03-16T09:03:43.662Z,98998.30
2019-03-16T09:05:43.709Z,99003.05
2019-03-16T09:07:51.703Z,99011.66
2019-03-16T09:09:59.233Z,99000.98
2019-03-16T09:12:06.906Z,99004.91
2019-03-16T09:14:14.654Z,99015.19
2019-03-16T09:16:23.277Z,99015.63
2019-03-16T09:18:34.199Z,99011.39
2019-03-16T09:20:53.842Z,99022.94
2019-03-16T09:23:01.434Z,99022.53
2019-03-16T09:25:09.773Z,99032.45
2019-03-16T09:27:17.129Z,99048.67
2019-03-16T09:29:24.565Z,99044.61
2019-03-16T09:31:32.199Z,99055.07
2019-03-16T09:33:39.750Z,99046.69
2019-03-16T09:35:47.610Z,99049.81
2019-03-16T09:37:55.357Z,99058.54
2019-03-16T09:40:03.608Z,99057.23
2019-03-16T09:42:15.417Z,99069.55
2019-03-16T09:44:24.939Z,99081.36
2019-03-16T09:46:36.719Z,99077.52
2019-03-16T09:48:45.583Z,99083.55
2019-03-16T09:50:53.113Z,99089.47
2019-03-16T09:53:00.707Z,99100.23
2019-03-16T09:55:08.664Z,99097.36
2019-03-16T09:57:16.292Z,99102.41
2019-03-16T09:59:24.323Z,99113.34
2019-03-16T10:01:31.897Z,99108.77
2019-03-16T10:03:39.523Z,99109.75
2019-03-16T10:05:47.140Z,99130.02
2019-03-16T10:07:54.667Z,99139.47
2019-03-16T10:10:02.308Z,99146.92
2019-03-16T10:12:09.761Z,99138.17
2019-03-16T10:14:17.529Z,99129.92
2019-03-16T10:16:25.280Z,99148.92
2019-03-16T10:18:33.121Z,99156.41
2019-03-16T10:20:40.850Z,99153.25
2019-03-16T10:22:48.282Z,99147.25
2019-03-16T10:24:56.123Z,99147.25
2019-03-16T10:27:03.801Z,99154.09
2019-03-16T10:29:11.316Z,99157.54
2019-03-16T10:31:23.689Z,99167.47
2019-03-16T10:33:35.444Z,99163.29
2019-03-16T10:35:42.993Z,99167.44
2019-03-16T10:37:50.798Z,99180.56
2019-03-16T10:39:58.369Z,99171.92
2019-03-16T10:42:10.876Z,99179.33
2019-03-16T10:44:23.626Z,99191.11
2019-03-16T10:46:31.678Z,99196.94
2019-03-16T10:48:39.347Z,99196.31
2019-03-16T10:50:47.423Z,99201.95
2019-03-16T10:52:55.601Z,99200.80
2019-03-16T10:55:10.478Z,99200.39
2019-03-16T10:57:18.486Z,99199.47
2019-03-16T10:59:27.846Z,99203.73
2019-03-16T11:01:46.517Z,99211.00
2019-03-16T11:03:57.011Z,99217.00
2019-03-16T11:06:06.991Z,99219.12
2019-03-16T11:08:21.346Z,99229.38
2019-03-16T11:10:31.278Z,99237.45
2019-03-16T11:12:39.781Z,99237.81
2019-03-16T11:14:56.562Z,99243.31
2019-03-16T11:17:04.349Z,99237.38
2019-03-16T11:19:14.095Z,99240.98
2019-03-16T11:21:23.527Z,99244.57
2019-03-16T11:23:31.252Z,99239.66
2019-03-16T11:25:44.167Z,99235.80
2019-03-16T11:27:51.759Z,99248.81
2019-03-16T11:29:59.426Z,99245.59
2019-03-16T11:32:06.884Z,99250.50
2019-03-16T11:34:14.422Z,99253.48
2019-03-16T11:36:21.920Z,99259.70
2019-03-16T11:38:29.556Z,99261.38
2019-03-16T11:40:37.183Z,99260.08
2019-03-16T11:42:44.846Z,99265.31
2019-03-16T11:44:52.591Z,99262.08
2019-03-16T11:47:00.388Z,99274.84
2019-03-16T11:49:07.984Z,99277.17
2019-03-16T11:51:15.614Z,99279.91
2019-03-16T11:53:29.298Z,99270.45
2019-03-16T11:55:37.163Z,99284.86
2019-03-16T11:57:45.750Z,99276.20
2019-03-16T11:59:53.660Z,99285.00
2019-03-16T12:02:05.453Z,99271.76
2019-03-16T12:04:10.904Z,99293.33
2019-03-16T12:06:18.496Z,99297.30
2019-03-16T12:08:29.452Z,99308.63
2019-03-16T12:10:37.143Z,99303.30
2019-03-16T12:12:45.075Z,99304.40
2019-03-16T12:14:52.881Z,99315.97
2019-03-16T12:17:06.509Z,99308.29
2019-03-16T12:19:14.303Z,99315.75
2019-03-16T12:21:26.648Z,99327.33
2019-03-16T12:23:42.457Z,99332.56
2019-03-16T12:26:10.857Z,99341.95
2019-03-16T12:28:25.637Z,99338.28
2019-03-16T12:30:33.239Z,99342.68
2019-03-16T12:32:52.493Z,99334.50
2019-03-16T12:35:28.676Z,99336.28
2019-03-16T12:37:38.536Z,99335.01
2019-03-16T12:39:48.697Z,99350.77
2019-03-16T12:41:56.460Z,99350.52
2019-03-16T12:44:04.054Z,99362.70
2019-03-16T12:46:12.091Z,99350.95
2019-03-16T12:48:20.286Z,99345.84
2019-03-16T12:50:28.411Z,99349.56
2019-03-16T12:52:36.678Z,99344.31
2019-03-16T12:54:44.613Z,99343.95
2019-03-16T12:56:52.270Z,99337.78
2019-03-16T12:59:10.799Z,99336.19
2019-03-16T13:01:15.650Z,99352.42
2019-03-16T13:03:30.379Z,99365.17
2019-03-16T13:05:38.363Z,99361.78
2019-03-16T13:07:49.370Z,99361.86
2019-03-16T13:10:00.908Z,99365.32
2019-03-16T13:12:14.243Z,99366.08
2019-03-16T13:14:22.297Z,99355.05
2019-03-16T13:16:53.638Z,99363.88
2019-03-16T13:19:02.475Z,99367.74
2019-03-16T13:21:20.105Z,99366.45
2019-03-16T13:23:42.156Z,99372.97
2019-03-16T13:26:04.863Z,99370.20
2019-03-16T13:28:15.274Z,99370.57
2019-03-16T13:30:23.116Z,99377.48
2019-03-16T13:32:57.947Z,99384.52
2019-03-16T13:35:10.611Z,99387.41
2019-03-16T13:37:23.811Z,99392.16
2019-03-16T13:39:34.366Z,99393.72
2019-03-16T13:41:41.990Z,99394.64
2019-03-16T13:43:55.848Z,99392.85
2019-03-16T13:46:07.133Z,99400.22
2019-03-16T13:48:16.141Z,99399.77
2019-03-16T13:50:25.133Z,99396.45
2019-03-16T13:52:36.428Z,99402.82
2019-03-16T13:54:44.567Z,99402.90
2019-03-16T13:56:58.867Z,99401.02
2019-03-16T13:59:07.653Z,99425.72
2019-03-16T14:01:16.342Z,99422.36
2019-03-16T14:03:24.788Z,99438.27
2019-03-16T14:05:33.415Z,99423.84
2019-03-16T14:07:42.263Z,99425.23
2019-03-16T14:09:50.467Z,99423.02
2019-03-16T14:11:58.668Z,99424.67
2019-03-16T14:14:08.238Z,99432.52
2019-03-16T14:16:16.404Z,99429.78
2019-03-16T14:18:25.367Z,99423.79
2019-03-16T14:20:53.827Z,99429.41
2019-03-16T14:23:04.383Z,99431.00
2019-03-16T14:25:12.891Z,99425.89
2019-03-16T14:27:24.230Z,99441.89
2019-03-16T14:29:32.817Z,99451.70
2019-03-16T14:31:41.066Z,99447.52
2019-03-16T14:33:48.954Z,99464.87
2019-03-16T14:35:56.936Z,99466.47
2019-03-16T14:38:04.746Z,99466.02
2019-03-16T14:40:13.149Z,99467.27
2019-03-16T14:42:20.924Z,99471.71
2019-03-16T14:44:29.504Z,99471.71
2019-03-16T14:46:37.075Z,99470.70
2019-03-16T14:48:46.086Z,99480.71
2019-03-16T14:50:54.043Z,99476.88
2019-03-16T14:53:02.026Z,99476.88
2019-03-16T14:55:10.272Z,99474.16
2019-03-16T14:57:18.013Z,99473.24
2019-03-16T14:59:25.590Z,99476.78
2019-03-16T15:01:33.092Z,99479.69
2019-03-16T15:03:40.764Z,99494.80
2019-03-16T15:05:52.002Z,99497.80
2019-03-16T15:08:00.075Z,99493.89
2019-03-16T15:10:08.327Z,99508.55
2019-03-16T15:12:16.211Z,99512.66
2019-03-16T15:14:24.977Z,99511.19
2019-03-16T15:16:32.455Z,99514.20
2019-03-16T15:18:40.228Z,99511.18
2019-03-16T15:20:48.415Z,99503.78
2019-03-16T15:22:56.513Z,99503.17
2019-03-16T15:25:04.505Z,99511.41
2019-03-16T15:27:15.667Z,99504.08
2019-03-16T15:29:22.305Z,99516.82
2019-03-16T15:31:30.452Z,99526.00
2019-03-16T15:33:38.464Z,99525.23
2019-03-16T15:35:46.342Z,99528.64
2019-03-16T15:37:54.011Z,99532.23
2019-03-16T15:40:01.601Z,99531.70
2019-03-16T15:42:09.251Z,99546.20
2019-03-16T15:44:16.811Z,99548.19
2019-03-16T15:46:24.498Z,99544.26
2019-03-16T15:48:32.111Z,99546.88
2019-03-16T15:50:39.730Z,99550.91
2019-03-16T15:52:47.287Z,99554.69
2019-03-16T15:54:55.004Z,99543.90
2019-03-16T15:57:02.613Z,99548.92
2019-03-16T15:59:10.213Z,99555.39
2019-03-16T16:01:17.810Z,99558.17
2019-03-16T16:03:25.692Z,99558.59
2019-03-16T16:05:33.562Z,99557.63
2019-03-16T16:07:41.158Z,99557.28
2019-03-16T16:09:50.110Z,99561.32
2019-03-16T16:11:59.743Z,99567.09
2019-03-16T16:14:07.306Z,99565.25
2019-03-16T16:16:14.987Z,99564.78
2019-03-16T16:18:22.919Z,99559.23
2019-03-16T16:20:31.607Z,99572.04
2019-03-16T16:22:39.312Z,99567.69
2019-03-16T16:24:48.129Z,99575.85
2019-03-16T16:26:55.784Z,99578.27
2019-03-16T16:29:03.519Z,99575.78
2019-03-16T16:31:16.487Z,99573.96
2019-03-16T16:33:22.687Z,99576.94
2019-03-16T16:35:30.260Z,99580.56
2019-03-16T16:37:38.290Z,99581.27
2019-03-16T16:39:46.930Z,99588.19
2019-03-16T16:41:54.701Z,99587.94
2019-03-16T16:44:03.124Z,99590.33
2019-03-16T16:46:11.120Z,99589.19
2019-03-16T16:48:18.920Z,99592.35
2019-03-16T16:50:26.655Z,99592.05
2019-03-16T16:52:35.014Z,99593.89
2019-03-16T16:54:42.717Z,99600.28
2019-03-16T16:56:50.903Z,99602.67
2019-03-16T16:58:59.136Z,99598.08
2019-03-16T17:01:06.939Z,99601.60
2019-03-16T17:03:14.451Z,99604.45
2019-03-16T17:05:21.931Z,99602.23
2019-03-16T17:07:29.994Z,99603.75
2019-03-16T17:09:37.668Z,99605.06
2019-03-16T17:11:45.257Z,99606.06
2019-03-16T17:13:53.100Z,99609.45
2019-03-16T17:16:00.726Z,99621.41
2019-03-16T17:18:08.441Z,99619.47
2019-03-16T17:20:16.420Z,99620.10
2019-03-16T17:22:24.117Z,99626.78
2019-03-16T17:24:32.488Z,99629.73
2019-03-16T17:26:40.093Z,99634.20
2019-03-16T17:28:48.797Z,99629.64
2019-03-16T17:30:58.770Z,99633.86
2019-03-16T17:33:06.544Z,99627.96
2019-03-16T17:35:14.387Z,99634.28
2019-03-16T17:37:22.858Z,99634.87
2019-03-16T17:39:30.546Z,99635.43
2019-03-16T17:41:38.087Z,99634.22
2019-03-16T17:43:45.974Z,99639.83
2019-03-16T17:45:53.582Z,99636.30
2019-03-16T17:48:01.228Z,99636.37
2019-03-16T17:50:09.735Z,99630.66
2019-03-16T17:52:17.669Z,99639.45
2019-03-16T17:54:25.196Z,99642.37
2019-03-16T17:56:32.713Z,99638.03
2019-03-16T17:58:40.173Z,99636.29
2019-03-16T18:00:48.822Z,99631.41
2019-03-16T18:02:56.381Z,99627.10
2019-03-16T18:05:04.123Z,99638.90
2019-03-16T18:07:12.681Z,99638.31
2019-03-16T18:09:20.277Z,99633.94
2019-03-16T18:11:27.889Z,99637.13
2019-03-16T18:13:35.609Z,99637.57
2019-03-16T18:15:43.337Z,99628.18
2019-03-16T18:17:50.966Z,99637.26
2019-03-16T18:19:58.517Z,99644.45
2019-03-16T18:22:06.117Z,99645.39
2019-03-16T18:24:13.726Z,99638.45
2019-03-16T18:26:21.630Z,99651.84
2019-03-16T18:28:29.604Z,99648.45
2019-03-16T18:30:37.293Z,99654.02
2019-03-16T18:32:45.135Z,99659.84
2019-03-16T18:34:52.729Z,99657.91
2019-03-16T18:37:00.896Z,99657.85
2019-03-16T18:39:09.540Z,99657.03
2019-03-16T18:41:17.393Z,99659.91
2019-03-16T18:43:25.029Z,99666.40
2019-03-16T18:45:32.732Z,99664.37
2019-03-16T18:47:40.653Z,99665.20
2019-03-16T18:49:48.314Z,99672.22
2019-03-16T18:51:58.363Z,99673.16
2019-03-16T18:54:06.056Z,99671.59
2019-03-16T18:56:13.843Z,99672.16
2019-03-16T18:58:21.364Z,99672.16
2019-03-16T19:00:29.645Z,99675.09
2019-03-16T19:02:37.245Z,99673.00
2019-03-16T19:04:45.447Z,99679.28
2019-03-16T19:06:53.655Z,99679.81
2019-03-16T19:09:01.615Z,99677.20
2019-03-16T19:11:09.240Z,99682.84
2019-03-16T19:13:16.964Z,99668.71
2019-03-16T19:15:24.825Z,99678.33
2019-03-16T19:17:32.624Z,99679.78
2019-03-16T19:19:40.413Z,99676.59
2019-03-16T19:21:50.278Z,99681.66
2019-03-16T19:23:57.914Z,99677.95
2019-03-16T19:26:05.632Z,99680.36
2019-03-16T19:28:13.547Z,99675.13
2019-03-16T19:30:21.983Z,99685.61
2019-03-16T19:32:33.997Z,99685.31
2019-03-16T19:34:39.320Z,99680.28
2019-03-16T19:36:46.922Z,99678.72
2019-03-16T19:38:54.706Z,99680.36
2019-03-16T19:41:02.469Z,99682.56
2019-03-16T19:43:10.461Z,99679.80
2019-03-16T19:45:18.324Z,99676.77
2019-03-16T19:47:26.052Z,99683.77
2019-03-16T19:49:34.247Z,99678.49
2019-03-16T19:51:41.975Z,99678.69
2019-03-16T19:53:49.714Z,99685.27
2019-03-16T19:55:57.519Z,99684.02
2019-03-16T19:58:05.237Z,99678.41
2019-03-16T20:00:15.639Z,99675.90
2019-03-16T20:02:23.564Z,99675.98
2019-03-16T20:04:36.137Z,99674.78
2019-03-16T20:06:41.822Z,99673.48
2019-03-16T20:08:49.475Z,99672.41
2019-03-16T20:11:05.897Z,99672.17
2019-03-16T20:13:06.571Z,99667.08
2019-03-16T20:15:15.443Z,99672.13
2019-03-16T20:17:23.176Z,99669.28
2019-03-16T20:19:30.708Z,99668.72
2019-03-16T20:21:38.596Z,99665.50
2019-03-16T20:23:47.340Z,99671.23
2019-03-16T20:25:55.075Z,99674.13
2019-03-16T20:28:03.159Z,99665.45
2019-03-16T20:30:11.505Z,99661.64
2019-03-16T20:32:20.371Z,99662.61
2019-03-16T20:34:28.155Z,99664.61
2019-03-16T20:36:36.210Z,99669.27
2019-03-16T20:38:44.071Z,99664.97
2019-03-16T20:40:51.803Z,99670.13
2019-03-16T20:42:59.609Z,99666.45
2019-03-16T20:45:07.953Z,99655.65
2019-03-16T20:47:16.206Z,99663.32
2019-03-16T20:49:24.069Z,99652.60
2019-03-16T20:51:31.748Z,99655.11
2019-03-16T20:53:39.831Z,99658.77
2019-03-16T20:55:47.972Z,99660.89
2019-03-16T20:57:56.140Z,99665.05
2019-03-16T21:00:04.476Z,99662.69
2019-03-16T21:02:12.195Z,99670.27
2019-03-16T21:04:19.909Z,99674.78
2019-03-16T21:06:27.660Z,99674.91
2019-03-16T21:08:35.388Z,99677.80
2019-03-16T21:10:43.363Z,99679.11
2019-03-16T21:12:51.162Z,99681.65
2019-03-16T21:14:59.045Z,99684.42
2019-03-16T21:17:06.746Z,99693.97
2019-03-16T21:19:14.377Z,99691.23
2019-03-16T21:21:22.046Z,99701.28
2019-03-16T21:23:29.841Z,99701.79
2019-03-16T21:25:37.818Z,99691.45
2019-03-16T21:27:45.671Z,99697.25
2019-03-16T21:29:53.342Z,99700.25
2019-03-16T21:32:01.476Z,99693.15
2019-03-16T21:34:09.174Z,99700.05
2019-03-16T21:36:17.186Z,99705.39
2019-03-16T21:38:25.035Z,99706.02
2019-03-16T21:40:32.755Z,99712.45
2019-03-16T21:42:40.540Z,99715.17
2019-03-16T21:44:48.241Z,99715.73
2019-03-16T21:46:57.045Z,99713.59
2019-03-16T21:49:04.955Z,99718.47
2019-03-16T21:51:12.867Z,99719.11
2019-03-16T21:53:20.673Z,99716.83
2019-03-16T21:55:28.462Z,99717.96
2019-03-16T21:57:36.663Z,99721.41
2019-03-16T21:59:44.260Z,99723.77
2019-03-16T22:01:52.213Z,99723.38
2019-03-16T22:04:01.321Z,99732.00
2019-03-16T22:06:09.699Z,99728.13
2019-03-16T22:08:18.029Z,99730.61
2019-03-16T22:10:26.303Z,99728.30
2019-03-16T22:12:34.784Z,99732.19
2019-03-16T22:14:42.910Z,99730.44
2019-03-16T22:16:50.669Z,99735.95
2019-03-16T22:18:58.644Z,99741.73
2019-03-16T22:21:06.754Z,99733.73
2019-03-16T22:23:14.494Z,99737.45
2019-03-16T22:25:22.991Z,99726.90
2019-03-16T22:27:30.789Z,99733.23
2019-03-16T22:29:39.223Z,99731.84
2019-03-16T22:31:47.124Z,99727.62
2019-03-16T22:33:55.029Z,99727.27
2019-03-16T22:36:03.056Z,99732.41
2019-03-16T22:38:10.665Z,99717.50
2019-03-16T22:40:18.502Z,99722.25
2019-03-16T22:42:26.258Z,99721.58
2019-03-16T22:44:34.139Z,99713.25
2019-03-16T22:46:42.343Z,99709.09
2019-03-16T22:48:50.098Z,99710.97
2019-03-16T22:50:57.798Z,99710.73
2019-03-16T22:53:05.590Z,99710.13
2019-03-16T22:55:15.864Z,99710.17
2019-03-16T22:57:23.238Z,99712.73
2019-03-16T22:59:30.903Z,99718.63
2019-03-16T23:01:38.940Z,99710.06
2019-03-16T23:03:46.893Z,99711.07
2019-03-16T23:05:55.727Z,99712.97
2019-03-16T23:08:03.316Z,99719.31
2019-03-16T23:10:24.862Z,99721.37
2019-03-16T23:12:32.584Z,99708.94
2019-03-16T23:14:40.048Z,99714.36
2019-03-16T23:16:47.672Z,99713.84
2019-03-16T23:18:55.396Z,99710.67
2019-03-16T23:21:03.073Z,99715.44
2019-03-16T23:23:10.702Z,99705.09
2019-03-16T23:25:18.220Z,99705.09
2019-03-16T23:27:25.718Z,99709.34
2019-03-16T23:29:33.111Z,99699.17
2019-03-16T23:31:40.480Z,99701.50
2019-03-16T23:33:48.210Z,99698.00
2019-03-16T23:35:55.551Z,99695.25
2019-03-16T23:38:02.983Z,99702.30
2019-03-16T23:40:10.759Z,99703.09
2019-03-16T23:42:18.155Z,99694.41
2019-03-16T23:44:25.590Z,99693.72
2019-03-16T23:46:32.993Z,99700.25
2019-03-16T23:48:40.469Z,99683.73
2019-03-16T23:50:47.992Z,99692.46
2019-03-16T23:52:55.436Z,99689.80
2019-03-16T23:55:02.802Z,99686.91
2019-03-16T23:57:10.607Z,99678.80
2019-03-16T23:59:18.039Z,99685.66
